createdAt,value
2023-05-08T00:00:57.823Z,46.0697
2023-05-08T00:01:58.909Z,46.1466
2023-05-08T00:03:00.213Z,46.2134
2023-05-08T00:04:01.194Z,46.1091
2023-05-08T00:05:02.275Z,46.1142
2023-05-08T00:06:03.312Z,46.1724
2023-05-08T00:07:04.416Z,46.0621
2023-05-08T00:08:05.579Z,46.0284
2023-05-08T00:09:06.637Z,45.9703
2023-05-08T00:10:07.745Z,46.0067
2023-05-08T00:11:08.850Z,46.1225
2023-05-08T00:12:09.941Z,46.1247
2023-05-08T00:13:11.078Z,46.0523
2023-05-08T00:14:12.123Z,46.0932
2023-05-08T00:15:13.234Z,46.1279
2023-05-08T00:16:14.398Z,46.0673
2023-05-08T00:17:15.427Z,46.0635
2023-05-08T00:18:16.521Z,46.1131
2023-05-08T00:19:17.615Z,46.1272
2023-05-08T00:20:18.721Z,46.0848
2023-05-08T00:21:19.834Z,45.9645
2023-05-08T00:22:20.930Z,45.9741
2023-05-08T00:23:22.047Z,46.0511
2023-05-08T00:24:23.111Z,45.9950
2023-05-08T00:25:24.211Z,45.9766
2023-05-08T00:26:25.325Z,45.9387
2023-05-08T00:27:26.402Z,45.9456
2023-05-08T00:28:27.514Z,45.9078
2023-05-08T00:29:28.606Z,45.9351
2023-05-08T00:30:29.733Z,46.0183
2023-05-08T00:31:30.823Z,46.0874
2023-05-08T00:32:31.899Z,46.1246
2023-05-08T00:33:33.041Z,46.1825
2023-05-08T00:34:34.098Z,46.1921
2023-05-08T00:35:35.193Z,46.1587
2023-05-08T00:36:36.274Z,46.1503
2023-05-08T00:37:37.385Z,46.0650
2023-05-08T00:38:38.513Z,46.0864
2023-05-08T00:39:39.587Z,46.0223
2023-05-08T00:40:40.695Z,46.0283
2023-05-08T00:41:41.789Z,46.0450
2023-05-08T00:42:42.875Z,46.0131
2023-05-08T00:43:44.005Z,45.9918
2023-05-08T00:44:45.075Z,45.9239
2023-05-08T00:45:46.242Z,45.8483
2023-05-08T00:46:47.343Z,45.8233
2023-05-08T00:47:48.398Z,45.9145
2023-05-08T00:48:49.550Z,45.9748
2023-05-08T00:49:50.582Z,46.0081
2023-05-08T00:50:51.682Z,46.0448
2023-05-08T00:51:52.800Z,46.0013
2023-05-08T00:52:53.886Z,45.9578
2023-05-08T00:53:55.019Z,45.9153
2023-05-08T00:54:56.060Z,45.9116
2023-05-08T00:55:57.303Z,45.9759
2023-05-08T00:56:58.295Z,46.0767
2023-05-08T00:57:59.404Z,46.1013
2023-05-08T00:59:00.496Z,46.0933
2023-05-08T01:00:01.574Z,46.0477
2023-05-08T01:01:02.707Z,45.9888
2023-05-08T01:02:03.775Z,45.9743
2023-05-08T01:03:04.946Z,45.9652
2023-05-08T01:04:05.992Z,45.9340
2023-05-08T01:05:07.062Z,45.9405
2023-05-08T01:06:08.207Z,45.9895
2023-05-08T01:07:09.293Z,46.0346
2023-05-08T01:08:10.364Z,46.1510
2023-05-08T01:09:11.485Z,46.1800
2023-05-08T01:10:12.770Z,46.1776
2023-05-08T01:11:13.648Z,46.2490
2023-05-08T01:12:14.765Z,46.2081
2023-05-08T01:13:15.884Z,46.2594
2023-05-08T01:14:16.958Z,46.2893
2023-05-08T01:15:18.051Z,46.2981
2023-05-08T01:16:19.219Z,46.2821
2023-05-08T01:17:20.276Z,46.2898
2023-05-08T01:18:21.336Z,46.2785
2023-05-08T01:19:22.458Z,46.3015
2023-05-08T01:20:23.527Z,46.2926
2023-05-08T01:21:24.643Z,46.4041
2023-05-08T01:22:25.727Z,46.3360
2023-05-08T01:23:26.826Z,46.2536
2023-05-08T01:24:27.920Z,46.2510
2023-05-08T01:25:29.060Z,46.2189
2023-05-08T01:26:30.142Z,46.1432
2023-05-08T01:27:31.216Z,46.1490
2023-05-08T01:28:32.319Z,46.1211
2023-05-08T01:29:33.800Z,46.0299
2023-05-08T01:30:34.508Z,46.0251
2023-05-08T01:31:35.612Z,46.0847
2023-05-08T01:32:36.764Z,46.1653
2023-05-08T01:33:37.859Z,46.2308
2023-05-08T01:34:38.954Z,46.3060
2023-05-08T01:35:40.005Z,46.4454
2023-05-08T01:36:41.107Z,46.4904
2023-05-08T01:37:42.215Z,46.4520
2023-05-08T01:38:43.301Z,46.3557
2023-05-08T01:39:44.404Z,46.3259
2023-05-08T01:40:45.488Z,46.3456
2023-05-08T01:41:46.630Z,46.3483
2023-05-08T01:42:47.706Z,46.4060
2023-05-08T01:43:48.815Z,46.4817
2023-05-08T01:44:49.905Z,46.5643
2023-05-08T01:45:50.999Z,46.5859
2023-05-08T01:46:52.198Z,46.5772
2023-05-08T01:47:53.189Z,46.5786
2023-05-08T01:48:54.292Z,46.5435
2023-05-08T01:49:55.385Z,46.4510
2023-05-08T01:50:56.474Z,46.3573
2023-05-08T01:51:57.581Z,46.3776
2023-05-08T01:52:58.679Z,46.3413
2023-05-08T01:53:59.801Z,46.2631
2023-05-08T01:55:00.874Z,46.2920
2023-05-08T01:56:01.949Z,46.2852
2023-05-08T01:57:03.058Z,46.3367
2023-05-08T01:58:04.162Z,46.3852
2023-05-08T01:59:05.237Z,46.4466
2023-05-08T02:00:06.346Z,46.4515
2023-05-08T02:01:07.528Z,46.4051
2023-05-08T02:02:08.589Z,46.3365
2023-05-08T02:03:09.719Z,46.3056
2023-05-08T02:04:10.767Z,46.2958
2023-05-08T02:05:11.868Z,46.2604
2023-05-08T02:06:12.927Z,46.3182
2023-05-08T02:07:14.052Z,46.3386
2023-05-08T02:08:15.155Z,46.2833
2023-05-08T02:09:16.242Z,46.2501
2023-05-08T02:10:25.322Z,46.2041
2023-05-08T02:11:18.431Z,46.1177
2023-05-08T02:12:19.546Z,46.0815
2023-05-08T02:13:20.780Z,46.0910
2023-05-08T02:14:21.741Z,46.1981
2023-05-08T02:15:22.846Z,46.1724
2023-05-08T02:16:23.975Z,46.1034
2023-05-08T02:17:25.060Z,46.2506
2023-05-08T02:18:26.140Z,46.3811
2023-05-08T02:19:27.248Z,46.3604
2023-05-08T02:20:28.418Z,46.3746
2023-05-08T02:21:29.512Z,46.3385
2023-05-08T02:22:30.617Z,46.3156
2023-05-08T02:23:31.725Z,46.3581
2023-05-08T02:24:32.798Z,46.4162
2023-05-08T02:25:33.905Z,46.3765
2023-05-08T02:26:35.016Z,46.2839
2023-05-08T02:27:36.143Z,46.2676
2023-05-08T02:28:37.235Z,46.1886
2023-05-08T02:29:38.329Z,46.2651
2023-05-08T02:30:39.436Z,46.3442
2023-05-08T02:31:40.584Z,46.3746
2023-05-08T02:32:41.656Z,46.3806
2023-05-08T02:33:42.735Z,46.3326
2023-05-08T02:34:54.920Z,46.3952
2023-05-08T02:35:45.933Z,46.4533
2023-05-08T02:36:46.013Z,46.4846
2023-05-08T02:37:47.133Z,46.4877
2023-05-08T02:38:48.220Z,46.5014
2023-05-08T02:39:49.314Z,46.5291
2023-05-08T02:40:50.434Z,46.5386
2023-05-08T02:41:51.542Z,46.5070
2023-05-08T02:42:52.648Z,46.5441
2023-05-08T02:43:53.731Z,46.4570
2023-05-08T02:44:54.853Z,46.4508
2023-05-08T02:45:55.941Z,46.3791
2023-05-08T02:46:57.041Z,46.4485
2023-05-08T02:47:58.138Z,46.5198
2023-05-08T02:48:59.228Z,46.5050
2023-05-08T02:50:00.419Z,46.4269
2023-05-08T02:51:01.417Z,46.4350
2023-05-08T02:52:02.529Z,46.4069
2023-05-08T02:53:03.648Z,46.4125
2023-05-08T02:54:04.734Z,46.3938
2023-05-08T02:55:05.808Z,46.2779
2023-05-08T02:56:06.918Z,46.3253
2023-05-08T02:57:08.011Z,46.3807
2023-05-08T02:58:09.099Z,46.4670
2023-05-08T02:59:10.216Z,46.4650
2023-05-08T03:00:11.483Z,46.4507
2023-05-08T03:01:12.418Z,46.4603
2023-05-08T03:02:13.555Z,46.4472
2023-05-08T03:03:14.669Z,46.4325
2023-05-08T03:04:15.712Z,46.4794
2023-05-08T03:05:16.809Z,46.4429
2023-05-08T03:06:17.899Z,46.4535
2023-05-08T03:07:19.011Z,46.5244
2023-05-08T03:08:20.086Z,46.6796
2023-05-08T03:09:21.228Z,46.7700
2023-05-08T03:10:22.283Z,46.7210
2023-05-08T03:11:23.408Z,46.5962
2023-05-08T03:12:24.485Z,46.5167
2023-05-08T03:13:25.626Z,46.4864
2023-05-08T03:14:26.693Z,46.5155
2023-05-08T03:15:27.779Z,46.5041
2023-05-08T03:16:28.954Z,46.4524
2023-05-08T03:17:30.022Z,46.4161
2023-05-08T03:18:31.078Z,46.3772
2023-05-08T03:19:32.146Z,46.2816
2023-05-08T03:20:33.249Z,46.1996
2023-05-08T03:21:34.386Z,46.2054
2023-05-08T03:22:35.461Z,46.3141
2023-05-08T03:23:36.545Z,46.2664
2023-05-08T03:24:37.665Z,46.2204
2023-05-08T03:25:38.753Z,46.1466
2023-05-08T03:26:39.859Z,46.1226
2023-05-08T03:27:40.985Z,46.1017
2023-05-08T03:28:42.106Z,46.1480
2023-05-08T03:29:43.174Z,46.2778
2023-05-08T03:30:44.301Z,46.2612
2023-05-08T03:31:45.392Z,46.2193
2023-05-08T03:32:46.511Z,46.1646
2023-05-08T03:33:47.590Z,46.1916
2023-05-08T03:34:48.683Z,46.2359
2023-05-08T03:35:49.826Z,46.2379
2023-05-08T03:36:50.885Z,46.2726
2023-05-08T03:37:52.028Z,46.2269
2023-05-08T03:38:53.086Z,46.1611
2023-05-08T03:39:54.202Z,46.1861
2023-05-08T03:40:55.343Z,46.2791
2023-05-08T03:41:56.404Z,46.4046
2023-05-08T03:42:57.541Z,46.3850
2023-05-08T03:43:58.643Z,46.2746
2023-05-08T03:44:59.703Z,46.2483
2023-05-08T03:46:00.805Z,46.3884
2023-05-08T03:47:02.005Z,46.3643
2023-05-08T03:48:03.052Z,46.2617
2023-05-08T03:49:04.142Z,46.2581
2023-05-08T03:50:05.229Z,46.1821
2023-05-08T03:51:06.362Z,46.2296
2023-05-08T03:52:07.438Z,46.1837
2023-05-08T03:53:08.573Z,46.1320
2023-05-08T03:54:09.634Z,46.1492
2023-05-08T03:55:10.763Z,46.2044
2023-05-08T03:56:11.858Z,46.1759
2023-05-08T03:57:12.951Z,46.2239
2023-05-08T03:58:14.078Z,46.2600
2023-05-08T03:59:15.212Z,46.2555
2023-05-08T04:00:16.267Z,46.2161
2023-05-08T04:01:17.405Z,46.1636
2023-05-08T04:02:18.592Z,46.3404
2023-05-08T04:03:19.677Z,46.3553
2023-05-08T04:04:20.785Z,46.2550
2023-05-08T04:05:21.780Z,46.2581
2023-05-08T04:06:22.885Z,46.3013
2023-05-08T04:07:23.961Z,46.3962
2023-05-08T04:08:25.103Z,46.3743
2023-05-08T04:09:26.188Z,46.3362
2023-05-08T04:10:27.280Z,46.3873
2023-05-08T04:11:28.368Z,46.3810
2023-05-08T04:12:29.480Z,46.3805
2023-05-08T04:13:30.830Z,46.4440
2023-05-08T04:14:31.687Z,46.4994
2023-05-08T04:15:32.766Z,46.5663
2023-05-08T04:16:33.909Z,46.5779
2023-05-08T04:17:35.034Z,46.5353
2023-05-08T04:18:36.069Z,46.5213
2023-05-08T04:19:37.177Z,46.5240
2023-05-08T04:20:38.282Z,46.5271
2023-05-08T04:21:39.364Z,46.6165
2023-05-08T04:22:40.481Z,46.6541
2023-05-08T04:23:41.578Z,46.7350
2023-05-08T04:24:42.664Z,46.8319
2023-05-08T04:25:43.755Z,46.8460
2023-05-08T04:26:44.856Z,46.8872
2023-05-08T04:27:45.966Z,46.9129
2023-05-08T04:28:47.083Z,46.8644
2023-05-08T04:29:48.213Z,46.8050
2023-05-08T04:30:49.282Z,46.7908
2023-05-08T04:31:50.405Z,46.9005
2023-05-08T04:32:51.529Z,46.8563
2023-05-08T04:33:52.564Z,46.7241
2023-05-08T04:34:53.658Z,46.7542
2023-05-08T04:35:54.745Z,46.8412
2023-05-08T04:36:55.844Z,46.7770
2023-05-08T04:37:56.965Z,46.7285
2023-05-08T04:38:59.140Z,46.6263
2023-05-08T04:39:59.168Z,46.5043
2023-05-08T04:41:00.286Z,46.3499
2023-05-08T04:42:01.356Z,46.2867
2023-05-08T04:43:02.452Z,46.3388
2023-05-08T04:44:03.561Z,46.4385
2023-05-08T04:45:04.661Z,46.5238
2023-05-08T04:46:05.837Z,46.4057
2023-05-08T04:47:06.834Z,46.2488
2023-05-08T04:48:08.001Z,46.0587
2023-05-08T04:49:09.043Z,45.9603
2023-05-08T04:50:10.126Z,45.9437
2023-05-08T04:51:11.236Z,45.8997
2023-05-08T04:52:12.323Z,45.9144
2023-05-08T04:53:13.440Z,45.9621
2023-05-08T04:54:14.543Z,46.0630
2023-05-08T04:55:15.607Z,46.2011
2023-05-08T04:56:16.721Z,46.2011
2023-05-08T04:57:17.816Z,46.1415
2023-05-08T04:58:18.909Z,46.1010
2023-05-08T04:59:20.009Z,46.0036
2023-05-08T05:00:21.107Z,46.1182
2023-05-08T05:01:22.221Z,46.0814
2023-05-08T05:02:23.306Z,46.0016
2023-05-08T05:03:24.521Z,45.9691
2023-05-08T05:04:25.499Z,45.9801
2023-05-08T05:05:26.595Z,45.9732
2023-05-08T05:06:27.696Z,46.0205
2023-05-08T05:07:28.807Z,46.0421
2023-05-08T05:08:29.910Z,45.9892
2023-05-08T05:09:31.020Z,45.8737
2023-05-08T05:10:32.101Z,45.8447
2023-05-08T05:11:33.189Z,45.8557
2023-05-08T05:12:34.277Z,45.8347
2023-05-08T05:13:35.393Z,45.9020
2023-05-08T05:14:36.523Z,46.0094
2023-05-08T05:15:37.583Z,46.0536
2023-05-08T05:16:38.783Z,46.0409
2023-05-08T05:17:39.817Z,46.0844
2023-05-08T05:18:40.912Z,46.0808
2023-05-08T05:19:42.018Z,45.9655
2023-05-08T05:20:43.094Z,45.9960
2023-05-08T05:21:44.196Z,45.9826
2023-05-08T05:22:45.305Z,45.9237
2023-05-08T05:23:46.386Z,45.8862
2023-05-08T05:24:47.504Z,45.8194
2023-05-08T05:25:48.607Z,45.7689
2023-05-08T05:26:49.704Z,45.8280
2023-05-08T05:27:50.798Z,45.9486
2023-05-08T05:28:51.900Z,45.8666
2023-05-08T05:29:53.010Z,45.8609
2023-05-08T05:30:54.090Z,45.8815
2023-05-08T05:31:55.208Z,45.9063
2023-05-08T05:32:56.327Z,45.9821
2023-05-08T05:33:57.374Z,46.1107
2023-05-08T05:34:58.485Z,46.2231
2023-05-08T05:35:59.576Z,46.3774
2023-05-08T05:37:00.678Z,46.4650
2023-05-08T05:38:01.777Z,46.5019
2023-05-08T05:39:02.883Z,46.5202
2023-05-08T05:40:03.986Z,46.5400
2023-05-08T05:41:05.074Z,46.4699
2023-05-08T05:42:06.193Z,46.4253
2023-05-08T05:43:07.277Z,46.4488
2023-05-08T05:44:08.394Z,46.5124
2023-05-08T05:45:09.489Z,46.5622
2023-05-08T05:46:10.574Z,46.6321
2023-05-08T05:47:11.815Z,46.7158
2023-05-08T05:48:12.902Z,46.8089
2023-05-08T05:49:13.881Z,46.7087
2023-05-08T05:50:15.052Z,46.5449
2023-05-08T05:51:16.093Z,46.4100
2023-05-08T05:52:17.190Z,46.3254
2023-05-08T05:53:18.265Z,46.3265
2023-05-08T05:54:19.357Z,46.3246
2023-05-08T05:55:20.480Z,46.3725
2023-05-08T05:56:21.557Z,46.4683
2023-05-08T05:57:22.661Z,46.6154
2023-05-08T05:58:23.754Z,46.6710
2023-05-08T05:59:24.850Z,46.6238
2023-05-08T06:00:25.947Z,46.6259
2023-05-08T06:01:27.050Z,46.7268
2023-05-08T06:02:28.239Z,46.8241
2023-05-08T06:03:29.308Z,46.8634
2023-05-08T06:04:30.510Z,46.9019
2023-05-08T06:05:31.469Z,46.9616
2023-05-08T06:06:32.551Z,47.0383
2023-05-08T06:07:33.645Z,47.0539
2023-05-08T06:08:34.756Z,47.0545
2023-05-08T06:09:35.848Z,47.0640
2023-05-08T06:10:36.957Z,46.9448
2023-05-08T06:11:38.035Z,46.9143
2023-05-08T06:12:39.212Z,47.0265
2023-05-08T06:13:40.242Z,46.9994
2023-05-08T06:14:41.320Z,46.8135
2023-05-08T06:15:42.452Z,46.7426
2023-05-08T06:16:43.655Z,46.7428
2023-05-08T06:17:44.686Z,46.8255
2023-05-08T06:18:45.724Z,46.9072
2023-05-08T06:19:46.816Z,46.8692
2023-05-08T06:20:48.009Z,46.8748
2023-05-08T06:21:49.096Z,46.8838
2023-05-08T06:22:50.205Z,46.8887
2023-05-08T06:23:51.300Z,46.7816
2023-05-08T06:24:52.393Z,46.7008
2023-05-08T06:25:53.502Z,46.5971
2023-05-08T06:26:54.592Z,46.5917
2023-05-08T06:27:55.694Z,46.6168
2023-05-08T06:28:56.803Z,46.7054
2023-05-08T06:29:57.915Z,46.7237
2023-05-08T06:30:59.065Z,46.8587
2023-05-08T06:32:00.132Z,47.0468
2023-05-08T06:33:01.325Z,47.1218
2023-05-08T06:34:02.271Z,47.1875
2023-05-08T06:35:03.395Z,47.1967
2023-05-08T06:36:04.491Z,47.1636
2023-05-08T06:37:05.579Z,47.1093
2023-05-08T06:38:06.674Z,47.1218
2023-05-08T06:39:07.798Z,47.2256
2023-05-08T06:40:12.694Z,47.2011
2023-05-08T06:41:09.992Z,47.1527
2023-05-08T06:42:11.074Z,47.1414
2023-05-08T06:43:12.170Z,47.2424
2023-05-08T06:44:13.270Z,47.3429
2023-05-08T06:45:14.582Z,47.4200
2023-05-08T06:46:15.555Z,47.5065
2023-05-08T06:47:16.700Z,47.5454
2023-05-08T06:48:17.656Z,47.5902
2023-05-08T06:49:18.774Z,47.4899
2023-05-08T06:50:19.867Z,47.4777
2023-05-08T06:51:20.955Z,47.4810
2023-05-08T06:52:22.049Z,47.4978
2023-05-08T06:53:23.161Z,47.4366
2023-05-08T06:54:24.248Z,47.3031
2023-05-08T06:55:25.366Z,47.2257
2023-05-08T06:56:26.465Z,47.1473
2023-05-08T06:57:27.549Z,47.0620
2023-05-08T06:58:28.645Z,46.9508
2023-05-08T06:59:29.742Z,46.9222
2023-05-08T07:00:30.872Z,46.9532
2023-05-08T07:01:32.006Z,47.0250
2023-05-08T07:02:33.117Z,47.1033
2023-05-08T07:03:34.139Z,46.9808
2023-05-08T07:04:35.285Z,46.8668
2023-05-08T07:05:36.337Z,46.8194
2023-05-08T07:06:37.458Z,46.8579
2023-05-08T07:07:38.540Z,47.0259
2023-05-08T07:08:39.624Z,47.0927
2023-05-08T07:09:40.734Z,47.0884
2023-05-08T07:10:41.845Z,47.1325
2023-05-08T07:11:42.939Z,47.0882
2023-05-08T07:12:44.077Z,47.0749
2023-05-08T07:13:45.145Z,47.0830
2023-05-08T07:14:46.242Z,47.1491
2023-05-08T07:15:47.339Z,47.1973
2023-05-08T07:16:48.458Z,47.3364
2023-05-08T07:17:49.583Z,47.3877
2023-05-08T07:18:50.620Z,47.4084
2023-05-08T07:19:51.719Z,47.3194
2023-05-08T07:20:52.826Z,47.2399
2023-05-08T07:21:53.944Z,47.2451
2023-05-08T07:22:54.987Z,47.2760
2023-05-08T07:23:56.101Z,47.3610
2023-05-08T07:24:57.222Z,47.4081
2023-05-08T07:25:58.285Z,47.4296
2023-05-08T07:26:59.399Z,47.3863
2023-05-08T07:28:01.504Z,47.3506
2023-05-08T07:29:01.573Z,47.4099
2023-05-08T07:30:02.682Z,47.4485
2023-05-08T07:31:03.861Z,47.3940
2023-05-08T07:32:04.954Z,47.3826
2023-05-08T07:33:06.050Z,47.4936
2023-05-08T07:34:07.058Z,47.5503
2023-05-08T07:35:09.752Z,47.5930
2023-05-08T07:36:09.236Z,47.7013
2023-05-08T07:37:10.375Z,47.7320
2023-05-08T07:38:11.455Z,47.6612
2023-05-08T07:39:12.558Z,47.7030
2023-05-08T07:40:13.644Z,47.7575
2023-05-08T07:41:14.783Z,47.7248
2023-05-08T07:42:15.861Z,47.7068
2023-05-08T07:43:16.914Z,47.7421
2023-05-08T07:44:18.060Z,47.7993
2023-05-08T07:45:19.119Z,47.8250
2023-05-08T07:46:20.229Z,47.6457
2023-05-08T07:47:21.322Z,47.5343
2023-05-08T07:48:22.477Z,47.4993
2023-05-08T07:49:23.487Z,47.5341
2023-05-08T07:50:24.573Z,47.4451
2023-05-08T07:51:25.684Z,47.3403
2023-05-08T07:52:26.785Z,47.2457
2023-05-08T07:53:27.854Z,47.1808
2023-05-08T07:54:28.953Z,47.2152
2023-05-08T07:55:30.061Z,47.3540
2023-05-08T07:56:31.142Z,47.4066
2023-05-08T07:57:32.246Z,47.4393
2023-05-08T07:58:33.354Z,47.4169
2023-05-08T07:59:34.458Z,47.3844
2023-05-08T08:00:35.516Z,47.4076
2023-05-08T08:01:36.727Z,47.3849
2023-05-08T08:02:37.845Z,47.3074
2023-05-08T08:03:38.988Z,47.3093
2023-05-08T08:04:40.020Z,47.3001
2023-05-08T08:05:41.030Z,47.3137
2023-05-08T08:06:42.101Z,47.2971
2023-05-08T08:07:43.229Z,47.2321
2023-05-08T08:08:44.298Z,47.2058
2023-05-08T08:09:45.398Z,47.2473
2023-05-08T08:10:46.479Z,47.3626
2023-05-08T08:11:47.583Z,47.3316
2023-05-08T08:12:48.769Z,47.2582
2023-05-08T08:13:49.781Z,47.1472
2023-05-08T08:14:50.875Z,47.1454
2023-05-08T08:15:52.022Z,47.1553
2023-05-08T08:16:53.135Z,46.9906
2023-05-08T08:17:54.239Z,46.8333
2023-05-08T08:18:55.369Z,46.8059
2023-05-08T08:19:56.402Z,46.8391
2023-05-08T08:20:57.482Z,46.9289
2023-05-08T08:21:58.568Z,47.0431
2023-05-08T08:22:59.666Z,47.0418
2023-05-08T08:24:00.759Z,46.9360
2023-05-08T08:25:01.872Z,46.9288
2023-05-08T08:26:02.977Z,47.0742
2023-05-08T08:27:04.062Z,47.2481
2023-05-08T08:28:05.185Z,47.3361
2023-05-08T08:29:06.259Z,47.4022
2023-05-08T08:30:16.695Z,47.5035
2023-05-08T08:31:09.481Z,47.4726
2023-05-08T08:32:09.562Z,47.4647
2023-05-08T08:33:10.761Z,47.4337
2023-05-08T08:34:11.860Z,47.3754
2023-05-08T08:35:13.376Z,47.3316
2023-05-08T08:36:13.973Z,47.3302
2023-05-08T08:37:15.059Z,47.3177
2023-05-08T08:38:16.184Z,47.2838
2023-05-08T08:39:17.262Z,47.3059
2023-05-08T08:40:18.392Z,47.1743
2023-05-08T08:41:19.470Z,47.0538
2023-05-08T08:42:20.596Z,46.9312
2023-05-08T08:43:21.682Z,46.8576
2023-05-08T08:44:22.763Z,46.8839
2023-05-08T08:45:23.877Z,47.0864
2023-05-08T08:46:25.014Z,47.2508
2023-05-08T08:47:26.108Z,47.3118
2023-05-08T08:48:27.170Z,47.2846
2023-05-08T08:49:28.360Z,47.0863
2023-05-08T08:50:29.389Z,46.8703
2023-05-08T08:51:30.474Z,46.7903
2023-05-08T08:52:31.585Z,46.8829
2023-05-08T08:53:32.692Z,47.0013
2023-05-08T08:54:33.770Z,47.0748
2023-05-08T08:55:34.872Z,47.1883
2023-05-08T08:56:36.014Z,47.2713
2023-05-08T08:57:37.099Z,47.3369
2023-05-08T08:58:39.250Z,47.4081
2023-05-08T08:59:39.287Z,47.4866
2023-05-08T09:00:40.395Z,47.4849
2023-05-08T09:01:41.500Z,47.5390
2023-05-08T09:02:42.647Z,47.5305
2023-05-08T09:03:43.799Z,47.3903
2023-05-08T09:04:44.847Z,47.4006
2023-05-08T09:05:45.884Z,47.4130
2023-05-08T09:06:46.968Z,47.4429
2023-05-08T09:07:48.076Z,47.4196
2023-05-08T09:08:49.200Z,47.3157
2023-05-08T09:09:50.270Z,47.2099
2023-05-08T09:10:51.368Z,47.1643
2023-05-08T09:11:52.502Z,47.1157
2023-05-08T09:12:53.590Z,47.2160
2023-05-08T09:13:54.685Z,47.3047
2023-05-08T09:14:55.789Z,47.3072
2023-05-08T09:15:56.895Z,47.3118
2023-05-08T09:16:57.987Z,47.4162
2023-05-08T09:17:59.171Z,47.4331
2023-05-08T09:19:00.184Z,47.3561
2023-05-08T09:20:01.374Z,47.2224
2023-05-08T09:21:02.394Z,47.1405
2023-05-08T09:22:03.493Z,46.9765
2023-05-08T09:23:04.673Z,47.0004
2023-05-08T09:24:05.695Z,47.0783
2023-05-08T09:25:06.785Z,47.0322
2023-05-08T09:26:07.893Z,47.0203
2023-05-08T09:27:08.982Z,46.9889
2023-05-08T09:28:10.078Z,47.0317
2023-05-08T09:29:11.213Z,47.1042
2023-05-08T09:30:12.310Z,47.2278
2023-05-08T09:31:13.402Z,47.1602
2023-05-08T09:32:14.485Z,47.1321
2023-05-08T09:33:15.660Z,47.2040
2023-05-08T09:34:16.675Z,47.2797
2023-05-08T09:35:17.984Z,47.4447
2023-05-08T09:36:18.851Z,47.4846
2023-05-08T09:37:19.963Z,47.3221
2023-05-08T09:38:21.046Z,47.1940
2023-05-08T09:39:22.159Z,47.1819
2023-05-08T09:40:23.287Z,47.1008
2023-05-08T09:41:24.358Z,47.1851
2023-05-08T09:42:25.461Z,47.3684
2023-05-08T09:43:26.562Z,47.4605
2023-05-08T09:44:27.670Z,47.4417
2023-05-08T09:45:28.841Z,47.3721
2023-05-08T09:46:29.887Z,47.3788
2023-05-08T09:47:30.967Z,47.4240
2023-05-08T09:48:32.060Z,47.4343
2023-05-08T09:49:33.148Z,47.4505
2023-05-08T09:50:34.327Z,47.5210
2023-05-08T09:51:35.344Z,47.6864
2023-05-08T09:52:36.497Z,47.8175
2023-05-08T09:53:37.548Z,47.8167
2023-05-08T09:54:38.640Z,47.7726
2023-05-08T09:55:39.729Z,47.7841
2023-05-08T09:56:40.843Z,47.8419
2023-05-08T09:57:41.926Z,47.8635
2023-05-08T09:58:43.074Z,47.8872
2023-05-08T09:59:44.142Z,48.0367
2023-05-08T10:00:45.281Z,48.1159
2023-05-08T10:01:46.345Z,48.1657
2023-05-08T10:02:47.462Z,48.0334
2023-05-08T10:03:48.593Z,48.1248
2023-05-08T10:04:49.685Z,48.1065
2023-05-08T10:05:50.840Z,48.0895
2023-05-08T10:06:52.357Z,48.0756
2023-05-08T10:07:52.960Z,48.0573
2023-05-08T10:08:54.055Z,48.0459
2023-05-08T10:09:55.180Z,47.9675
2023-05-08T10:10:56.245Z,47.9226
2023-05-08T10:11:57.348Z,47.8460
2023-05-08T10:12:58.549Z,47.9046
2023-05-08T10:13:59.541Z,47.9241
2023-05-08T10:15:00.665Z,47.9275
2023-05-08T10:16:01.733Z,47.9013
2023-05-08T10:17:02.921Z,47.8856
2023-05-08T10:18:04.088Z,47.7816
2023-05-08T10:19:05.062Z,47.6505
2023-05-08T10:20:06.170Z,47.6573
2023-05-08T10:21:07.332Z,47.5435
2023-05-08T10:22:08.433Z,47.5247
2023-05-08T10:23:09.523Z,47.5544
2023-05-08T10:24:10.638Z,47.7152
2023-05-08T10:25:11.991Z,47.7978
2023-05-08T10:26:12.840Z,47.8099
2023-05-08T10:27:13.939Z,47.7287
2023-05-08T10:28:15.045Z,47.7352
2023-05-08T10:29:16.150Z,47.7242
2023-05-08T10:30:17.274Z,47.7013
2023-05-08T10:31:18.401Z,47.7229
2023-05-08T10:32:19.434Z,47.7870
2023-05-08T10:33:20.559Z,47.9226
2023-05-08T10:34:21.649Z,48.0770
2023-05-08T10:35:22.754Z,48.2786
2023-05-08T10:36:23.927Z,48.2822
2023-05-08T10:37:24.953Z,48.2573
2023-05-08T10:38:26.075Z,48.2547
2023-05-08T10:39:27.156Z,48.3076
2023-05-08T10:40:28.259Z,48.3346
2023-05-08T10:41:29.361Z,48.2834
2023-05-08T10:42:30.462Z,48.2167
2023-05-08T10:43:31.603Z,48.2735
2023-05-08T10:44:32.673Z,48.3340
2023-05-08T10:45:33.787Z,48.3198
2023-05-08T10:46:34.893Z,48.2509
2023-05-08T10:47:36.023Z,48.2011
2023-05-08T10:48:37.105Z,48.2127
2023-05-08T10:49:38.210Z,48.2572
2023-05-08T10:50:39.321Z,48.2459
2023-05-08T10:51:40.423Z,48.1302
2023-05-08T10:52:41.520Z,48.1107
2023-05-08T10:53:42.620Z,48.0804
2023-05-08T10:54:43.719Z,48.0525
2023-05-08T10:55:44.839Z,47.9595
2023-05-08T10:56:45.933Z,47.9377
2023-05-08T10:57:47.031Z,47.9005
2023-05-08T10:58:48.124Z,47.7501
2023-05-08T10:59:49.223Z,47.6446
2023-05-08T11:00:50.314Z,47.6769
2023-05-08T11:01:51.460Z,47.6533
2023-05-08T11:02:52.560Z,47.6605
2023-05-08T11:03:53.682Z,47.8097
2023-05-08T11:04:54.702Z,47.8707
2023-05-08T11:05:55.819Z,47.8249
2023-05-08T11:06:56.925Z,47.8295
2023-05-08T11:07:58.027Z,47.8553
2023-05-08T11:09:00.612Z,47.9189
2023-05-08T11:10:00.209Z,47.8882
2023-05-08T11:11:01.374Z,47.9041
2023-05-08T11:12:02.428Z,47.8930
2023-05-08T11:13:03.539Z,47.9208
2023-05-08T11:14:04.638Z,47.8605
2023-05-08T11:15:05.744Z,47.7707
2023-05-08T11:16:06.912Z,47.8012
2023-05-08T11:17:07.970Z,47.7410
2023-05-08T11:18:09.175Z,47.7703
2023-05-08T11:19:10.142Z,47.7087
2023-05-08T11:20:11.257Z,47.6577
2023-05-08T11:21:12.358Z,47.6936
2023-05-08T11:22:13.479Z,47.7528
2023-05-08T11:23:14.552Z,47.7196
2023-05-08T11:24:15.681Z,47.8787
2023-05-08T11:25:16.795Z,47.8908
2023-05-08T11:26:17.904Z,47.8918
2023-05-08T11:27:18.990Z,47.8436
2023-05-08T11:28:20.109Z,47.8786
2023-05-08T11:29:21.214Z,48.0424
2023-05-08T11:30:22.324Z,48.1140
2023-05-08T11:31:23.493Z,48.1686
2023-05-08T11:32:24.576Z,48.1828
2023-05-08T11:33:25.648Z,48.2004
2023-05-08T11:34:26.753Z,48.3047
2023-05-08T11:35:27.842Z,48.3022
2023-05-08T11:36:29.008Z,48.2877
2023-05-08T11:37:30.053Z,48.2462
2023-05-08T11:38:31.163Z,48.2080
2023-05-08T11:39:32.275Z,48.2445
2023-05-08T11:40:33.369Z,48.3012
2023-05-08T11:41:34.479Z,48.2820
2023-05-08T11:42:35.578Z,48.2032
2023-05-08T11:43:36.721Z,48.1962
2023-05-08T11:44:37.787Z,48.2180
2023-05-08T11:45:38.903Z,48.1780
2023-05-08T11:46:40.076Z,48.0236
2023-05-08T11:47:41.178Z,48.0796
2023-05-08T11:48:42.222Z,48.3364
2023-05-08T11:49:43.323Z,48.2174
2023-05-08T11:50:44.430Z,48.1560
2023-05-08T11:51:45.559Z,48.1076
2023-05-08T11:52:46.636Z,48.1834
2023-05-08T11:53:47.763Z,48.3369
2023-05-08T11:54:48.857Z,48.2006
2023-05-08T11:55:49.961Z,48.2783
2023-05-08T11:56:51.080Z,48.3192
2023-05-08T11:57:52.193Z,48.2902
2023-05-08T11:58:53.295Z,48.2464
2023-05-08T11:59:54.389Z,48.1394
2023-05-08T12:00:55.553Z,48.0877
2023-05-08T12:02:07.559Z,47.9364
2023-05-08T12:02:58.941Z,47.8626
2023-05-08T12:03:59.087Z,47.7429
2023-05-08T12:05:00.010Z,47.6662
2023-05-08T12:06:01.060Z,47.7172
2023-05-08T12:07:02.148Z,47.7754
2023-05-08T12:08:03.237Z,47.7233
2023-05-08T12:09:04.361Z,47.6787
2023-05-08T12:10:05.492Z,47.5905
2023-05-08T12:11:06.557Z,47.5967
2023-05-08T12:12:07.772Z,47.7121
2023-05-08T12:13:08.808Z,47.4997
2023-05-08T12:14:09.866Z,47.3380
2023-05-08T12:15:10.970Z,47.3287
2023-05-08T12:16:12.149Z,47.3339
2023-05-08T12:17:13.236Z,47.4351
2023-05-08T12:18:14.359Z,47.3993
2023-05-08T12:19:15.396Z,47.3176